createdAt,value
2018-07-23T00:01:02.263Z,20.70
2018-07-23T00:03:30.406Z,20.60
2018-07-23T00:05:57.914Z,20.60
2018-07-23T00:08:25.652Z,20.50
2018-07-23T00:10:53.284Z,20.50
2018-07-23T00:13:20.949Z,20.50
2018-07-23T00:15:48.512Z,20.50
2018-07-23T00:18:16.085Z,20.50
2018-07-23T00:20:44.062Z,20.30
2018-07-23T00:23:11.697Z,20.40
2018-07-23T00:25:39.436Z,20.50
2018-07-23T00:30:34.403Z,20.50
2018-07-23T00:35:29.419Z,20.60
2018-07-23T00:42:51.908Z,20.40
2018-07-23T00:45:19.480Z,20.50
2018-07-23T00:47:47.713Z,20.50
2018-07-23T00:50:15.390Z,20.50
2018-07-23T00:52:43.590Z,20.50
2018-07-23T00:55:11.250Z,20.50
2018-07-23T00:57:38.903Z,20.50
2018-07-23T01:00:06.618Z,20.50
2018-07-23T01:02:34.240Z,20.50
2018-07-23T01:05:01.829Z,20.40
2018-07-23T01:07:30.012Z,20.50
2018-07-23T01:09:57.554Z,20.50
2018-07-23T01:12:28.762Z,20.40
2018-07-23T01:14:56.370Z,20.40
2018-07-23T01:17:24.169Z,20.30
2018-07-23T01:19:54.182Z,20.40
2018-07-23T01:24:50.369Z,20.30
2018-07-23T01:27:18.023Z,20.30
2018-07-23T01:29:45.561Z,20.30
2018-07-23T01:32:13.122Z,20.30
2018-07-23T01:34:40.754Z,20.20
2018-07-23T01:37:10.297Z,20.30
2018-07-23T01:39:37.825Z,20.30
2018-07-23T01:42:06.123Z,20.30
2018-07-23T01:44:34.575Z,20.30
2018-07-23T01:47:02.061Z,20.20
2018-07-23T01:49:29.661Z,20.20
2018-07-23T01:51:57.283Z,20.20
2018-07-23T01:54:25.324Z,20.20
2018-07-23T01:56:53.834Z,20.20
2018-07-23T01:59:22.048Z,20.20
2018-07-23T02:01:49.590Z,20.20
2018-07-23T02:04:17.173Z,20.30
2018-07-23T02:06:44.717Z,20.20
2018-07-23T02:09:13.033Z,20.20
2018-07-23T02:11:40.824Z,20.20
2018-07-23T02:14:09.389Z,20.10
2018-07-23T02:16:37.011Z,20.00
2018-07-23T02:21:33.505Z,19.90
2018-07-23T02:24:01.638Z,19.80
2018-07-23T02:26:29.173Z,19.90
2018-07-23T02:28:57.548Z,20.00
2018-07-23T02:31:25.644Z,19.90
2018-07-23T02:33:53.221Z,19.90
2018-07-23T02:36:20.829Z,20.00
2018-07-23T02:38:48.660Z,19.90
2018-07-23T02:43:44.800Z,19.90
2018-07-23T02:51:07.729Z,19.60
2018-07-23T02:53:35.281Z,19.80
2018-07-23T02:56:02.857Z,19.80
2018-07-23T03:00:58.620Z,19.90
2018-07-23T03:05:53.780Z,19.70
2018-07-23T03:08:22.173Z,19.70
2018-07-23T03:10:50.060Z,19.50
2018-07-23T03:13:18.710Z,19.60
2018-07-23T03:15:46.260Z,19.60
2018-07-23T03:18:13.792Z,19.80
2018-07-23T03:20:41.309Z,19.60
2018-07-23T03:23:08.843Z,19.60
2018-07-23T03:28:05.219Z,19.60
2018-07-23T03:30:34.212Z,19.60
2018-07-23T03:33:01.752Z,19.60
2018-07-23T03:35:30.549Z,19.60
2018-07-23T03:37:58.322Z,19.70
2018-07-23T03:40:25.989Z,19.60
2018-07-23T03:42:53.522Z,19.50
2018-07-23T03:45:21.408Z,19.50
2018-07-23T03:47:49.701Z,19.60
2018-07-23T03:50:17.392Z,19.60
2018-07-23T03:52:45.118Z,19.50
2018-07-23T03:55:12.648Z,19.50
2018-07-23T03:57:40.166Z,19.50
2018-07-23T04:00:07.673Z,19.50
2018-07-23T04:12:25.275Z,19.70
2018-07-23T04:14:52.755Z,19.70
2018-07-23T04:17:20.288Z,19.70
2018-07-23T04:19:47.882Z,19.70
2018-07-23T04:22:15.638Z,19.50
2018-07-23T04:24:43.348Z,19.60
2018-07-23T04:27:11.678Z,19.60
2018-07-23T04:29:39.210Z,19.60
2018-07-23T04:32:06.843Z,19.50
2018-07-23T04:34:34.403Z,19.60
2018-07-23T04:37:01.884Z,19.60
2018-07-23T04:39:29.420Z,19.60
2018-07-23T04:41:56.984Z,19.70
2018-07-23T04:44:24.629Z,19.70
2018-07-23T04:46:52.822Z,19.90
2018-07-23T04:49:20.425Z,20.00
2018-07-23T04:51:49.145Z,20.10
2018-07-23T04:54:16.935Z,20.10
2018-07-23T04:56:44.498Z,20.10
2018-07-23T04:59:12.162Z,20.10
2018-07-23T05:01:39.711Z,20.20
2018-07-23T05:04:09.466Z,20.30
2018-07-23T05:06:37.055Z,20.40
2018-07-23T05:09:08.578Z,20.30
2018-07-23T05:11:36.167Z,20.50
2018-07-23T05:14:04.466Z,20.50
2018-07-23T05:16:32.122Z,20.50
2018-07-23T05:18:59.596Z,20.40
2018-07-23T05:21:27.195Z,20.40
2018-07-23T05:23:54.903Z,20.50
2018-07-23T05:26:23.129Z,20.40
2018-07-23T05:28:50.690Z,20.40
2018-07-23T05:31:18.437Z,20.20
2018-07-23T05:33:45.994Z,20.30
2018-07-23T05:36:13.595Z,20.30
2018-07-23T05:38:41.597Z,20.40
2018-07-23T05:41:09.328Z,20.60
2018-07-23T05:43:36.961Z,20.70
2018-07-23T05:46:05.227Z,20.80
2018-07-23T05:48:33.790Z,20.80
2018-07-23T05:53:29.419Z,20.90
2018-07-23T05:58:25.398Z,20.90
2018-07-23T06:00:53.275Z,20.90
2018-07-23T06:03:21.009Z,21.00
2018-07-23T06:08:15.985Z,21.20
2018-07-23T06:10:43.508Z,21.30
2018-07-23T06:13:11.105Z,21.60
2018-07-23T06:15:38.762Z,21.60
2018-07-23T06:18:07.240Z,21.90
2018-07-23T06:20:35.554Z,21.80
2018-07-23T06:23:03.143Z,22.20
2018-07-23T06:25:30.782Z,22.20
2018-07-23T06:27:58.367Z,22.30
2018-07-23T06:30:25.954Z,22.40
2018-07-23T06:32:53.567Z,22.60
2018-07-23T06:35:21.087Z,22.70
2018-07-23T06:37:48.726Z,22.80
2018-07-23T06:40:16.407Z,22.90
2018-07-23T06:42:43.877Z,23.00
2018-07-23T06:45:11.481Z,23.40
2018-07-23T06:47:39.445Z,23.50
2018-07-23T06:50:07.314Z,23.50
2018-07-23T06:52:35.525Z,23.80
2018-07-23T06:55:03.554Z,23.90
2018-07-23T06:59:58.531Z,24.10
2018-07-23T07:02:26.175Z,24.10
2018-07-23T07:04:53.828Z,24.30
2018-07-23T07:07:21.290Z,24.20
2018-07-23T07:09:48.880Z,24.50
2018-07-23T07:12:16.664Z,24.60
2018-07-23T07:14:44.140Z,24.70
2018-07-23T07:17:11.855Z,24.80
2018-07-23T07:19:39.415Z,24.90
2018-07-23T07:22:06.939Z,25.00
2018-07-23T07:24:35.137Z,25.20
2018-07-23T07:27:02.676Z,25.20
2018-07-23T07:29:30.281Z,25.40
2018-07-23T07:31:57.921Z,25.50
2018-07-23T07:34:25.486Z,25.50
2018-07-23T07:36:53.118Z,25.60
2018-07-23T07:39:20.768Z,25.60
2018-07-23T07:41:48.262Z,25.70
2018-07-23T07:44:16.111Z,26.00
2018-07-23T07:46:43.896Z,26.00
2018-07-23T07:49:11.546Z,26.10
2018-07-23T07:51:39.149Z,26.40
2018-07-23T07:54:07.619Z,26.50
2018-07-23T07:56:35.790Z,26.50
2018-07-23T07:59:04.135Z,26.50
2018-07-23T08:03:59.715Z,26.70
2018-07-23T08:06:27.254Z,26.80
2018-07-23T08:08:54.860Z,27.00
2018-07-23T08:11:22.543Z,27.00
2018-07-23T08:13:50.232Z,27.20
2018-07-23T08:16:17.902Z,27.40
2018-07-23T08:18:45.637Z,27.50
2018-07-23T08:21:13.371Z,27.50
2018-07-23T08:26:08.970Z,28.00
2018-07-23T08:28:37.384Z,28.00
2018-07-23T08:33:32.471Z,27.80
2018-07-23T08:36:00.201Z,27.80
2018-07-23T08:38:28.965Z,27.90
2018-07-23T08:40:56.554Z,27.90
2018-07-23T08:43:24.640Z,28.20
2018-07-23T08:45:53.044Z,28.20
2018-07-23T08:50:48.699Z,28.30
2018-07-23T08:53:16.513Z,28.30
2018-07-23T08:55:44.683Z,28.30
2018-07-23T08:58:12.425Z,28.30
2018-07-23T09:00:40.631Z,28.40
2018-07-23T09:03:08.328Z,28.50
2018-07-23T09:05:35.923Z,28.70
2018-07-23T09:08:04.319Z,28.70
2018-07-23T09:10:32.518Z,28.80
2018-07-23T09:13:00.093Z,28.70
2018-07-23T09:25:17.824Z,29.30
2018-07-23T09:27:45.442Z,29.40
2018-07-23T09:30:18.731Z,29.40
2018-07-23T09:35:13.827Z,29.60
2018-07-23T09:37:41.560Z,29.80
2018-07-23T09:40:09.247Z,29.80
2018-07-23T09:42:37.496Z,29.70
2018-07-23T09:45:05.701Z,29.70
2018-07-23T09:47:33.308Z,29.70
2018-07-23T09:50:01.247Z,29.70
2018-07-23T09:52:28.922Z,29.70
2018-07-23T09:57:24.590Z,29.60
2018-07-23T09:59:52.253Z,30.20
2018-07-23T10:04:48.086Z,30.70
2018-07-23T10:07:15.844Z,31.10
2018-07-23T10:09:43.657Z,31.30
2018-07-23T10:12:11.276Z,31.30
2018-07-23T10:14:40.028Z,31.20
2018-07-23T10:17:08.741Z,31.10
2018-07-23T10:22:04.532Z,30.90
2018-07-23T10:24:32.908Z,30.90
2018-07-23T10:29:45.117Z,29.90
2018-07-23T10:32:12.998Z,29.60
2018-07-23T10:34:41.111Z,29.20
2018-07-23T10:37:09.475Z,28.90
2018-07-23T10:39:37.143Z,28.70
2018-07-23T10:44:33.244Z,28.20
2018-07-23T10:49:28.691Z,27.80
2018-07-23T10:51:56.396Z,27.70
2018-07-23T10:56:51.573Z,27.50
2018-07-23T10:59:19.280Z,27.50
2018-07-23T11:01:46.863Z,27.40
2018-07-23T11:04:14.397Z,27.40
2018-07-23T11:06:42.135Z,27.50
2018-07-23T11:09:10.422Z,27.60
2018-07-23T11:11:37.953Z,28.90
2018-07-23T11:14:05.482Z,28.90
2018-07-23T11:19:01.445Z,30.60
2018-07-23T11:23:57.586Z,30.70
2018-07-23T11:26:25.358Z,30.90
2018-07-23T11:28:54.467Z,31.30
2018-07-23T11:36:18.017Z,31.40
2018-07-23T11:38:45.576Z,31.10
2018-07-23T11:41:13.971Z,31.00
2018-07-23T11:43:41.480Z,30.50
2018-07-23T11:46:09.017Z,30.40
2018-07-23T11:48:38.060Z,29.80
2018-07-23T11:51:06.549Z,29.80
2018-07-23T11:53:34.372Z,29.30
2018-07-23T11:56:02.840Z,28.90
2018-07-23T11:58:31.240Z,28.80
2018-07-23T12:01:00.541Z,28.90
2018-07-23T12:03:28.122Z,28.90
2018-07-23T12:05:57.320Z,29.70
2018-07-23T12:08:25.739Z,30.00
2018-07-23T12:10:53.420Z,30.10
2018-07-23T12:13:21.632Z,30.80
2018-07-23T12:15:49.147Z,30.90
2018-07-23T12:18:16.665Z,30.90
2018-07-23T12:20:44.475Z,30.90
2018-07-23T12:25:39.429Z,31.20
2018-07-23T12:28:07.134Z,31.20
2018-07-23T12:30:34.665Z,31.00
2018-07-23T12:33:03.673Z,30.70
2018-07-23T12:42:54.143Z,29.90
2018-07-23T12:45:22.510Z,29.60
2018-07-23T12:47:50.594Z,29.30
2018-07-23T12:50:18.149Z,29.00
2018-07-23T12:52:47.557Z,28.90
2018-07-23T13:02:37.480Z,28.50
2018-07-23T13:05:05.189Z,28.20
2018-07-23T13:07:32.917Z,28.30
2018-07-23T13:10:01.198Z,28.70
2018-07-23T13:12:29.471Z,29.20
2018-07-23T13:17:26.128Z,29.90
2018-07-23T13:19:54.117Z,30.10
2018-07-23T13:22:22.161Z,30.30
2018-07-23T13:27:18.181Z,30.80
2018-07-23T13:29:45.779Z,30.80
2018-07-23T13:32:13.370Z,30.70
2018-07-23T13:34:41.108Z,30.70
2018-07-23T13:37:10.254Z,30.70
2018-07-23T13:39:38.582Z,30.80
2018-07-23T13:42:06.208Z,30.70
2018-07-23T13:44:33.743Z,30.90
2018-07-23T13:47:01.598Z,30.90
2018-07-23T13:49:29.247Z,31.00
2018-07-23T13:51:56.961Z,31.00
2018-07-23T13:54:24.501Z,31.00
2018-07-23T13:56:52.718Z,31.00
2018-07-23T13:59:20.362Z,31.10
2018-07-23T14:01:47.857Z,31.10
2018-07-23T14:04:15.426Z,30.80
2018-07-23T14:06:43.081Z,30.30
2018-07-23T14:09:12.418Z,30.20
2018-07-23T14:11:41.014Z,29.90
2018-07-23T14:14:08.613Z,29.90
2018-07-23T14:16:36.396Z,30.00
2018-07-23T14:21:32.039Z,29.90
2018-07-23T14:23:59.572Z,29.90
2018-07-23T14:26:27.305Z,29.90
2018-07-23T14:28:56.203Z,29.90
2018-07-23T14:31:23.857Z,29.80
2018-07-23T14:33:52.010Z,29.70
2018-07-23T14:36:19.681Z,29.80
2018-07-23T14:38:47.341Z,29.80
2018-07-23T14:41:15.003Z,29.70
2018-07-23T14:43:43.433Z,29.60
2018-07-23T14:51:26.200Z,29.30
2018-07-23T14:53:56.625Z,29.30
2018-07-23T14:56:26.111Z,29.20
2018-07-23T14:58:53.689Z,29.30
2018-07-23T15:01:21.854Z,29.20
2018-07-23T15:03:49.371Z,29.10
2018-07-23T15:06:16.965Z,29.00
2018-07-23T15:08:44.675Z,29.10
2018-07-23T15:11:12.736Z,29.10
2018-07-23T15:13:40.299Z,29.10
2018-07-23T15:16:08.714Z,29.10
2018-07-23T15:18:36.847Z,29.10
2018-07-23T15:21:05.438Z,28.90
2018-07-23T15:23:33.657Z,28.70
2018-07-23T15:26:01.317Z,28.50
2018-07-23T15:28:28.875Z,28.40
2018-07-23T15:30:56.789Z,28.40
2018-07-23T15:33:24.396Z,28.50
2018-07-23T15:35:52.010Z,28.70
2018-07-23T15:38:19.831Z,28.40
2018-07-23T15:40:47.652Z,28.80
2018-07-23T15:43:16.689Z,28.30
2018-07-23T15:45:44.620Z,28.20
2018-07-23T15:48:12.490Z,28.20
2018-07-23T15:50:40.653Z,28.10
2018-07-23T15:53:08.964Z,28.10
2018-07-23T15:55:36.587Z,28.10
2018-07-23T15:58:04.449Z,28.00
2018-07-23T16:00:32.672Z,27.90
2018-07-23T16:48:53.079Z,27.80
2018-07-23T16:51:20.834Z,27.80
2018-07-23T16:53:49.032Z,27.80
2018-07-23T16:58:46.394Z,27.80
2018-07-23T17:01:13.944Z,27.70
2018-07-23T17:03:41.501Z,27.70
2018-07-23T17:06:09.359Z,27.70
2018-07-23T17:08:37.836Z,27.70
2018-07-23T17:11:06.725Z,27.70
2018-07-23T17:13:34.916Z,27.60
2018-07-23T17:16:03.647Z,27.60
2018-07-23T17:18:31.276Z,27.60
2018-07-23T17:20:59.537Z,27.60
2018-07-23T17:23:28.508Z,27.60
2018-07-23T17:25:56.743Z,27.50
2018-07-23T17:28:24.645Z,27.50
2018-07-23T17:30:53.778Z,27.50
2018-07-23T17:33:21.516Z,27.30
2018-07-23T17:35:49.287Z,27.20
2018-07-23T17:38:17.448Z,27.20
2018-07-23T17:40:45.369Z,27.10
2018-07-23T17:43:13.609Z,27.10
2018-07-23T17:45:41.826Z,27.40
2018-07-23T17:48:09.836Z,27.10
2018-07-23T17:50:38.102Z,27.00
2018-07-23T17:53:07.065Z,27.10
2018-07-23T17:55:35.034Z,27.00
2018-07-23T17:58:03.330Z,26.90
2018-07-23T18:00:31.545Z,26.60
2018-07-23T18:02:59.177Z,26.30
2018-07-23T18:05:26.750Z,26.20
2018-07-23T18:07:55.127Z,26.00
2018-07-23T18:10:22.825Z,25.90
2018-07-23T18:12:50.480Z,25.90
2018-07-23T18:15:18.059Z,25.90
2018-07-23T18:17:45.732Z,25.90
2018-07-23T18:20:13.492Z,25.90
2018-07-23T18:22:41.111Z,25.90
2018-07-23T18:25:08.801Z,25.90
2018-07-23T18:27:36.336Z,25.90
2018-07-23T18:30:05.669Z,25.90
2018-07-23T18:32:33.393Z,25.90
2018-07-23T18:35:00.967Z,25.90
2018-07-23T18:37:29.454Z,25.90
2018-07-23T18:42:25.173Z,24.70
2018-07-23T18:44:53.853Z,25.90
2018-07-23T18:49:54.539Z,25.90
2018-07-23T18:52:23.914Z,25.90
2018-07-23T18:57:20.880Z,25.90
2018-07-23T18:59:49.607Z,25.80
2018-07-23T19:02:18.755Z,25.80
2018-07-23T19:04:47.540Z,25.80
2018-07-23T19:07:15.294Z,25.80
2018-07-23T19:09:43.081Z,25.80
2018-07-23T19:12:11.296Z,25.80
2018-07-23T19:14:39.358Z,25.80
2018-07-23T19:17:09.436Z,25.80
2018-07-23T19:19:38.053Z,25.80
2018-07-23T19:22:06.751Z,25.70
2018-07-23T19:24:35.783Z,25.60
2018-07-23T19:27:04.062Z,25.60
2018-07-23T19:29:33.856Z,25.60
2018-07-23T19:32:01.432Z,25.50
2018-07-23T19:34:30.278Z,25.50
2018-07-23T19:36:58.484Z,25.40
2018-07-23T19:39:27.067Z,25.30
2018-07-23T19:41:56.245Z,25.30
2018-07-23T19:48:16.012Z,25.30
2018-07-23T19:50:44.349Z,25.30
2018-07-23T19:53:11.980Z,25.30
2018-07-23T19:55:40.215Z,25.20
2018-07-23T19:58:08.179Z,25.20
2018-07-23T20:00:36.965Z,25.20
2018-07-23T20:05:33.848Z,25.10
2018-07-23T20:08:01.570Z,25.00
2018-07-23T20:10:30.550Z,25.00
2018-07-23T20:12:59.246Z,25.00
2018-07-23T20:15:28.138Z,25.00
2018-07-23T20:17:56.592Z,25.00
2018-07-23T20:20:24.286Z,24.90
2018-07-23T20:22:51.896Z,24.90
2018-07-23T20:25:20.173Z,24.90
2018-07-23T20:27:48.593Z,24.90
2018-07-23T20:30:16.549Z,24.80
2018-07-23T20:32:44.741Z,24.80
2018-07-23T20:35:13.944Z,24.80
2018-07-23T20:37:41.584Z,24.80
2018-07-23T20:40:09.328Z,24.80
2018-07-23T20:42:37.014Z,24.80
2018-07-23T20:45:04.686Z,24.70
2018-07-23T20:47:33.476Z,24.70
2018-07-23T20:50:01.010Z,24.80
2018-07-23T20:52:28.590Z,24.80
2018-07-23T20:54:56.208Z,24.80
2018-07-23T20:57:24.007Z,24.70
2018-07-23T20:59:52.312Z,24.70
2018-07-23T21:02:20.658Z,24.70
2018-07-23T21:04:48.810Z,24.70
2018-07-23T21:07:16.542Z,24.50
2018-07-23T21:09:45.983Z,24.60
2018-07-23T21:12:14.806Z,24.60
2018-07-23T21:14:42.433Z,24.60
2018-07-23T21:17:10.137Z,24.60
2018-07-23T21:19:37.854Z,24.50
2018-07-23T21:22:05.678Z,24.50
2018-07-23T21:24:33.336Z,24.40
2018-07-23T21:27:01.154Z,24.40
2018-07-23T21:29:28.787Z,24.30
2018-07-23T21:31:59.790Z,24.30
2018-07-23T21:34:28.957Z,24.40
2018-07-23T21:36:58.302Z,24.40
2018-07-23T21:39:26.351Z,24.40
2018-07-23T21:44:22.088Z,24.30
2018-07-23T21:46:49.772Z,24.20
2018-07-23T21:49:18.028Z,24.10
2018-07-23T21:51:46.267Z,24.10
2018-07-23T21:59:09.190Z,24.10
2018-07-23T22:09:00.975Z,23.90
2018-07-23T22:11:28.549Z,23.90
2018-07-23T22:13:56.600Z,23.90
2018-07-23T22:16:24.240Z,23.90
2018-07-23T22:18:52.652Z,23.80
2018-07-23T22:21:20.181Z,23.70
2018-07-23T22:23:48.368Z,23.70
2018-07-23T22:26:15.931Z,23.70
2018-07-23T22:28:44.416Z,23.60
2018-07-23T22:31:12.313Z,23.60
2018-07-23T22:33:43.785Z,23.60
2018-07-23T22:36:12.341Z,23.70
2018-07-23T22:38:41.033Z,23.70
2018-07-23T22:41:08.752Z,23.70
2018-07-23T22:43:37.243Z,23.60
2018-07-23T22:46:04.928Z,23.60
2018-07-23T22:48:32.652Z,23.50
2018-07-23T22:51:00.983Z,23.50
2018-07-23T22:53:29.442Z,23.40
2018-07-23T22:55:57.580Z,23.40
2018-07-23T22:58:25.803Z,23.40
2018-07-23T23:00:55.523Z,23.40
2018-07-23T23:03:23.694Z,23.40
2018-07-23T23:05:51.424Z,23.40
2018-07-23T23:08:20.736Z,23.40
2018-07-23T23:10:48.469Z,23.40
2018-07-23T23:13:17.373Z,23.40
2018-07-23T23:15:44.980Z,23.40
2018-07-23T23:18:12.561Z,23.30
2018-07-23T23:20:40.265Z,23.30
2018-07-23T23:23:08.492Z,23.30
2018-07-23T23:25:35.998Z,23.10
2018-07-23T23:28:03.562Z,23.10
2018-07-23T23:30:31.209Z,23.20
2018-07-23T23:35:26.197Z,23.30
2018-07-23T23:40:22.366Z,23.10
2018-07-23T23:47:44.712Z,23.20
2018-07-23T23:50:13.073Z,23.00
2018-07-23T23:52:40.595Z,23.00
2018-07-23T23:55:09.422Z,23.00
2018-07-23T23:57:37.044Z,23.00
